Time;durP1;ratioP1;P1;durP2;ratioP2;P2;SDS_P1;SDS_P2;PMS_P1;PMS_P2;Temp;Humidity;BMP_temperature;BMP_pressure;BME280_temperature;BME280_humidity;BME280_pressure;Samples;Min_cycle;Max_cycle;Signal;HPM_P1;HPM_P2
2023/12/01 00:01:53;;;;;;;49.95;20.63;;;;;;;-146.27;85.72;34501.88;5088786;28;20027;-68
2023/12/01 00:04:19;;;;;;;52.45;19.35;;;;;;;-146.27;85.32;34505.84;5089356;28;20465;-70
2023/12/01 00:06:44;;;;;;;52.90;19.67;;;;;;;-146.27;85.76;34482.03;5091044;28;20055;-68
2023/12/01 00:09:10;;;;;;;68.90;19.50;;;;;;;-146.27;85.64;34489.97;5089004;28;20055;-69
2023/12/01 00:11:35;;;;;;;49.13;20.50;;;;;;;-146.27;85.95;34525.69;5098798;28;20088;-68
2023/12/01 00:14:00;;;;;;;47.83;20.52;;;;;;;-146.27;85.83;34505.84;5104546;28;20127;-68
2023/12/01 00:16:26;;;;;;;46.83;18.20;;;;;;;-146.27;85.74;34484.00;5089320;28;20111;-69
2023/12/01 00:18:52;;;;;;;51.00;18.63;;;;;;;-146.27;85.55;34450.25;5089827;28;20032;-68
2023/12/01 00:21:17;;;;;;;54.50;19.30;;;;;;;-146.27;85.57;34470.13;5108858;28;20035;-70
2023/12/01 00:23:43;;;;;;;61.50;19.27;;;;;;;-146.27;85.88;34466.16;5094103;28;20054;-70
2023/12/01 00:26:08;;;;;;;52.60;21.15;;;;;;;-146.27;86.06;34495.91;5090554;28;20044;-68
2023/12/01 00:28:35;;;;;;;62.08;19.30;;;;;;;-146.27;86.26;34509.81;5071242;28;20089;-69
2023/12/01 00:31:00;;;;;;;51.03;18.63;;;;;;;-146.27;85.78;34497.91;5092280;28;20044;-70
2023/12/01 00:33:26;;;;;;;61.85;20.13;;;;;;;-146.27;85.71;34487.97;5101194;28;20024;-69
2023/12/01 00:35:51;;;;;;;63.95;21.38;;;;;;;-146.27;85.80;34509.81;5093245;28;20413;-69
2023/12/01 00:38:19;;;;;;;41.05;18.63;;;;;;;-146.27;85.53;34486.00;5111263;28;20023;-68
2023/12/01 00:40:44;;;;;;;49.65;19.77;;;;;;;-146.27;85.47;34495.91;5094664;28;20383;-68
2023/12/01 00:43:09;;;;;;;56.95;18.92;;;;;;;-146.27;85.70;34474.09;5093143;28;20027;-68
2023/12/01 00:45:35;;;;;;;51.28;20.00;;;;;;;-146.27;85.80;34474.09;5102881;28;20023;-69
2023/12/01 00:48:00;;;;;;;58.28;18.73;;;;;;;-146.27;85.44;34462.19;5094815;28;20118;-69
2023/12/01 00:50:26;;;;;;;48.58;19.48;;;;;;;-146.27;85.13;34487.97;5082932;28;20020;-68
2023/12/01 00:52:52;;;;;;;83.72;20.73;;;;;;;-146.27;85.32;34525.69;5095569;28;20491;-69
2023/12/01 00:55:17;;;;;;;51.20;19.55;;;;;;;-146.27;85.24;34505.84;5096665;28;20028;-67
2023/12/01 00:57:42;;;;;;;55.33;19.20;;;;;;;-146.27;85.08;34513.78;5102365;28;20019;-69
2023/12/01 01:00:08;;;;;;;57.28;19.52;;;;;;;-146.27;85.22;34493.94;5096612;28;20032;-69
2023/12/01 01:02:34;;;;;;;54.97;20.42;;;;;;;-146.27;85.44;34529.66;5080903;28;20080;-69
2023/12/01 01:05:00;;;;;;;49.38;18.58;;;;;;;-146.27;85.69;34501.88;5094273;28;20023;-69
2023/12/01 01:07:25;;;;;;;39.80;16.15;;;;;;;-146.27;85.47;34543.53;5097431;28;20028;-68
2023/12/01 01:09:50;;;;;;;53.60;16.02;;;;;;;-146.27;86.04;34529.66;5091984;28;20036;-69
2023/12/01 01:12:16;;;;;;;48.72;15.27;;;;;;;-146.27;85.76;34541.56;5101689;28;20020;-69
2023/12/01 01:14:41;;;;;;;40.70;16.30;;;;;;;-146.27;85.56;34541.56;5097127;28;20078;-68
2023/12/01 01:17:07;;;;;;;41.55;15.55;;;;;;;-146.27;85.61;34527.66;5097731;28;20067;-69
2023/12/01 01:19:32;;;;;;;38.40;16.67;;;;;;;-146.27;85.44;34549.50;5091027;28;20377;-68
2023/12/01 01:21:57;;;;;;;47.85;16.27;;;;;;;-146.27;85.51;34513.78;5095943;28;20045;-68
2023/12/01 01:24:24;;;;;;;51.38;16.65;;;;;;;-146.27;85.83;34565.38;5107058;28;21446;-69
2023/12/01 01:26:50;;;;;;;40.58;16.83;;;;;;;-146.27;85.28;34555.47;5097917;28;20039;-70
2023/12/01 01:29:15;;;;;;;44.45;15.38;;;;;;;-146.27;85.44;34529.66;5105472;28;20042;-69
2023/12/01 01:31:41;;;;;;;41.78;15.38;;;;;;;-146.27;85.23;34541.56;5098341;28;20051;-69
2023/12/01 01:34:06;;;;;;;45.05;17.08;;;;;;;-146.27;85.37;34521.72;5096745;28;20487;-69
2023/12/01 01:36:32;;;;;;;48.60;16.42;;;;;;;-146.27;85.72;34533.63;5102582;28;20023;-68
2023/12/01 01:38:57;;;;;;;51.42;16.52;;;;;;;-146.27;85.58;34517.75;5096897;28;20064;-69
2023/12/01 01:41:22;;;;;;;51.88;17.80;;;;;;;-146.27;85.96;34499.88;5085280;28;20040;-69
2023/12/01 01:43:48;;;;;;;58.97;19.17;;;;;;;-146.27;85.70;34523.69;5100914;28;20046;-68
2023/12/01 01:46:14;;;;;;;45.28;16.15;;;;;;;-146.27;85.48;34547.53;5096564;28;20051;-68
2023/12/01 01:48:41;;;;;;;45.55;17.02;;;;;;;-146.27;85.84;34501.88;5093687;28;20028;-70
2023/12/01 01:51:08;;;;;;;42.15;16.52;;;;;;;-146.27;85.45;34458.22;5092860;28;20039;-69
2023/12/01 01:53:35;;;;;;;44.20;16.70;;;;;;;-146.27;85.45;34533.63;5092916;28;20069;-68
2023/12/01 01:56:02;;;;;;;41.00;16.50;;;;;;;-146.27;85.31;34519.72;5093311;28;20031;-69
2023/12/01 01:58:27;;;;;;;39.58;14.73;;;;;;;-146.27;85.04;34539.56;5090688;28;20035;-69
2023/12/01 02:00:53;;;;;;;42.20;16.75;;;;;;;-146.27;85.30;34507.81;5093910;28;20500;-68
2023/12/01 02:03:20;;;;;;;48.20;16.35;;;;;;;-146.27;85.65;34525.69;5092946;28;20039;-69
2023/12/01 02:05:48;;;;;;;44.67;17.17;;;;;;;-146.27;85.42;34501.88;5091969;28;20024;-69
2023/12/01 02:08:27;;;;;;;43.33;17.25;;;;;;;-146.27;85.72;34531.63;5096854;28;20029;-69
2023/12/01 02:10:57;;;;;;;39.80;14.85;;;;;;;-146.27;85.54;34521.72;5111439;28;20031;-70
2023/12/01 02:13:23;;;;;;;41.70;16.38;;;;;;;-146.27;85.44;34549.50;5077335;28;21427;-69
2023/12/01 02:15:50;;;;;;;46.72;15.95;;;;;;;-146.27;85.48;34537.59;5102551;28;20023;-68
2023/12/01 02:18:27;;;;;;;47.58;16.02;;;;;;;-146.27;85.44;34541.56;5093523;28;20032;-69
2023/12/01 02:20:57;;;;;;;39.65;15.38;;;;;;;-146.27;85.06;34507.81;5073690;28;20025;-69
2023/12/01 02:23:22;;;;;;;39.08;15.23;;;;;;;-146.27;84.77;34513.78;5104073;28;20063;-68
2023/12/01 02:25:48;;;;;;;42.20;15.43;;;;;;;-146.27;84.75;34517.75;5090545;28;20047;-69
2023/12/01 02:28:14;;;;;;;44.10;15.88;;;;;;;-146.27;84.80;34539.56;5090701;28;20043;-68
2023/12/01 02:30:41;;;;;;;36.15;15.35;;;;;;;-146.27;84.89;34565.38;5093157;28;20051;-68
2023/12/01 02:33:07;;;;;;;49.90;16.05;;;;;;;-146.27;85.07;34573.31;5100882;28;20050;-69
2023/12/01 02:35:32;;;;;;;57.33;16.15;;;;;;;-146.27;85.11;34573.31;5096738;28;20032;-69
2023/12/01 02:37:58;;;;;;;43.67;16.95;;;;;;;-146.27;84.61;34541.56;5091768;28;20027;-69
2023/12/01 02:40:24;;;;;;;38.22;15.77;;;;;;;-146.27;84.87;34519.72;5102281;28;20097;-68
2023/12/01 02:42:51;;;;;;;38.72;14.63;;;;;;;-146.27;85.10;34583.25;5085622;28;20415;-69
2023/12/01 02:45:17;;;;;;;40.05;14.55;;;;;;;-146.27;85.58;34529.66;5092029;28;20096;-69
2023/12/01 02:47:45;;;;;;;37.47;14.45;;;;;;;-146.27;85.34;34541.56;5082873;28;20440;-68
2023/12/01 02:50:12;;;;;;;34.47;12.55;;;;;;;-146.27;85.03;34569.34;5092383;28;20024;-68
2023/12/01 02:52:37;;;;;;;32.72;12.45;;;;;;;-146.27;85.54;34557.44;5090296;28;20040;-69
2023/12/01 02:55:03;;;;;;;34.33;12.57;;;;;;;-146.27;85.13;34589.19;5090562;28;20069;-69
2023/12/01 02:57:28;;;;;;;36.80;13.50;;;;;;;-146.27;85.07;34545.53;5091117;28;20365;-68
2023/12/01 02:59:54;;;;;;;28.65;11.70;;;;;;;-146.27;84.83;34533.63;5104034;28;20085;-68
2023/12/01 03:02:19;;;;;;;32.53;12.32;;;;;;;-146.27;85.01;34555.47;5090957;28;20612;-69
2023/12/01 03:04:44;;;;;;;32.85;12.10;;;;;;;-146.27;84.87;34517.75;5082370;28;20528;-68
2023/12/01 03:07:10;;;;;;;34.17;10.90;;;;;;;-146.27;84.93;34529.66;5091453;28;20107;-69
2023/12/01 03:09:35;;;;;;;35.45;11.60;;;;;;;-146.27;85.28;34585.22;5101711;28;20055;-68
2023/12/01 03:12:01;;;;;;;31.58;11.75;;;;;;;-146.27;85.00;34553.47;5093731;28;20039;-68
2023/12/01 03:14:26;;;;;;;27.35;10.55;;;;;;;-146.27;84.88;34541.56;5099250;28;20110;-69
2023/12/01 03:16:51;;;;;;;28.27;11.10;;;;;;;-146.27;85.22;34529.66;5088634;28;20464;-69
2023/12/01 03:19:17;;;;;;;27.73;10.15;;;;;;;-146.27;85.42;34543.53;5087949;28;20020;-69
2023/12/01 03:21:42;;;;;;;29.83;10.40;;;;;;;-146.27;84.75;34565.38;5082302;28;20078;-69
2023/12/01 03:24:09;;;;;;;28.35;10.75;;;;;;;-146.27;84.45;34579.28;5086335;28;20402;-69
2023/12/01 03:26:35;;;;;;;36.22;11.75;;;;;;;-146.27;84.56;34549.50;5093584;28;20072;-68
2023/12/01 03:29:01;;;;;;;30.77;10.73;;;;;;;-146.27;85.26;34561.41;5095069;28;20121;-68
2023/12/01 03:31:26;;;;;;;27.85;10.95;;;;;;;-146.27;85.26;34579.28;5098827;28;20036;-68
2023/12/01 03:33:52;;;;;;;33.50;12.18;;;;;;;-146.27;85.10;34579.28;5092210;28;20015;-69
2023/12/01 03:36:17;;;;;;;32.00;12.05;;;;;;;-146.27;84.84;34553.47;5101737;28;20027;-68
2023/12/01 03:38:42;;;;;;;30.77;12.35;;;;;;;-146.27;85.11;34581.25;5072618;28;20020;-69
2023/12/01 03:41:08;;;;;;;34.10;11.95;;;;;;;-146.27;84.46;34577.28;5098720;28;20027;-68
2023/12/01 03:43:33;;;;;;;32.53;11.93;;;;;;;-146.27;84.13;34573.31;5091945;28;20023;-70
2023/12/01 03:45:59;;;;;;;38.47;13.15;;;;;;;-146.27;84.45;34553.47;5095356;28;20104;-69
2023/12/01 03:48:24;;;;;;;36.45;13.40;;;;;;;-146.27;84.62;34583.25;5089916;28;20480;-69
2023/12/01 03:50:50;;;;;;;34.50;13.30;;;;;;;-146.27;85.18;34589.19;5089819;28;20040;-69
2023/12/01 03:53:15;;;;;;;40.40;12.95;;;;;;;-146.27;85.34;34557.44;5097012;28;20536;-69
2023/12/01 03:55:41;;;;;;;36.67;14.40;;;;;;;-146.27;85.42;34593.16;5080252;28;20544;-70
2023/12/01 03:58:06;;;;;;;35.85;13.55;;;;;;;-146.27;85.02;34482.03;5093488;28;20426;-69
2023/12/01 04:00:32;;;;;;;36.38;15.20;;;;;;;-146.27;84.75;34579.28;5093775;28;20502;-68
2023/12/01 04:02:58;;;;;;;40.60;14.65;;;;;;;-146.27;84.90;34589.19;5092688;28;20488;-69
2023/12/01 04:05:26;;;;;;;36.28;13.73;;;;;;;-146.27;84.99;34573.31;5103124;28;20050;-68
2023/12/01 04:07:52;;;;;;;41.65;14.57;;;;;;;-146.27;84.67;34555.47;5092352;28;20024;-69
2023/12/01 04:10:18;;;;;;;35.88;13.23;;;;;;;-146.27;84.75;34579.28;5092342;28;20024;-69
2023/12/01 04:12:44;;;;;;;32.92;11.75;;;;;;;-146.27;84.81;34565.38;5104794;28;20020;-69
2023/12/01 04:15:14;;;;;;;29.90;11.85;;;;;;;-146.27;85.37;34593.16;5092964;28;20085;-69
2023/12/01 04:17:45;;;;;;;31.48;11.57;;;;;;;-146.27;84.70;34537.59;5096352;28;20088;-70
2023/12/01 04:20:21;;;;;;;28.73;11.85;;;;;;;-146.27;84.70;34525.69;5101167;28;20497;-69
2023/12/01 04:22:57;;;;;;;33.28;11.25;;;;;;;-146.27;84.46;34573.31;5100762;28;20024;-70
2023/12/01 04:25:23;;;;;;;29.38;11.75;;;;;;;-146.27;84.39;34555.47;5092823;28;20052;-70
2023/12/01 04:27:49;;;;;;;31.83;11.85;;;;;;;-146.27;84.12;34533.63;5093309;28;20399;-68
2023/12/01 04:30:15;;;;;;;31.90;11.52;;;;;;;-146.27;84.44;34551.50;5092814;28;20112;-69
2023/12/01 04:32:43;;;;;;;22.65;9.13;;;;;;;-146.27;84.57;34545.53;5104494;28;20028;-69
2023/12/01 04:35:10;;;;;;;29.58;11.13;;;;;;;-146.27;84.40;34565.38;5107531;28;20032;-69
2023/12/01 04:37:36;;;;;;;31.83;10.45;;;;;;;-146.27;84.26;34519.72;5108770;28;20051;-69
2023/12/01 04:40:01;;;;;;;26.50;10.77;;;;;;;-146.27;83.73;34549.50;5093500;28;20362;-68
2023/12/01 04:42:27;;;;;;;26.77;11.30;;;;;;;-146.27;83.69;34545.53;5101797;28;20491;-68
2023/12/01 04:44:52;;;;;;;28.80;10.27;;;;;;;-146.27;84.10;34525.69;5101855;28;20572;-70
2023/12/01 04:47:18;;;;;;;29.50;10.40;;;;;;;-146.27;83.77;34521.72;5097796;28;20114;-69
2023/12/01 04:49:44;;;;;;;32.40;10.27;;;;;;;-146.27;83.78;34525.69;5105336;28;20024;-68
2023/12/01 04:52:09;;;;;;;30.30;10.77;;;;;;;-146.27;83.23;34539.56;5091809;28;20042;-69
2023/12/01 04:54:36;;;;;;;25.80;10.10;;;;;;;-146.27;83.28;34529.66;5096947;28;20021;-70
2023/12/01 04:57:01;;;;;;;25.25;10.40;;;;;;;-146.27;83.93;34517.75;5096368;28;20419;-69
2023/12/01 04:59:26;;;;;;;25.15;10.18;;;;;;;-146.27;83.40;34529.66;5091970;28;20081;-69
2023/12/01 05:01:52;;;;;;;28.17;11.57;;;;;;;-146.27;83.28;34547.53;5097702;28;20111;-69
2023/12/01 05:04:17;;;;;;;34.22;11.82;;;;;;;-146.27;83.38;34529.66;5098730;28;20450;-69
2023/12/01 05:06:43;;;;;;;29.63;11.13;;;;;;;-146.27;83.34;34501.88;5092618;28;20028;-68
2023/12/01 05:09:16;;;;;;;29.38;11.63;;;;;;;-146.27;82.98;34529.66;5099491;28;20039;-69
2023/12/01 05:11:43;;;;;;;30.40;11.45;;;;;;;-146.27;83.00;34521.72;5102609;28;20023;-69
2023/12/01 05:14:10;;;;;;;30.63;10.95;;;;;;;-146.27;82.74;34525.69;5092925;28;20419;-68
2023/12/01 05:16:38;;;;;;;30.75;10.98;;;;;;;-146.27;82.44;34527.66;5093819;28;20070;-70
2023/12/01 05:19:05;;;;;;;33.88;12.13;;;;;;;-146.27;82.38;34509.81;5091790;28;20024;-70
2023/12/01 05:21:31;;;;;;;28.33;11.07;;;;;;;-146.27;82.03;34501.88;5084768;28;20089;-70
2023/12/01 05:23:58;;;;;;;37.67;12.80;;;;;;;-146.27;82.20;34501.88;5093069;28;20028;-69
2023/12/01 05:26:23;;;;;;;34.85;12.65;;;;;;;-146.27;81.99;34484.00;5096677;28;20119;-69
2023/12/01 05:28:49;;;;;;;32.78;13.48;;;;;;;-146.27;82.17;34384.78;5099191;28;20107;-70
2023/12/01 05:31:14;;;;;;;34.17;12.90;;;;;;;-146.27;82.10;34501.88;5105837;28;20116;-69
2023/12/01 05:33:41;;;;;;;35.08;13.77;;;;;;;-146.27;81.96;34495.91;5095404;28;20024;-69
2023/12/01 05:36:08;;;;;;;38.08;13.68;;;;;;;-146.27;81.57;34482.03;5099594;28;20099;-69
2023/12/01 05:38:34;;;;;;;42.50;15.30;;;;;;;-146.27;81.38;34470.13;5092202;28;20483;-69
2023/12/01 05:41:00;;;;;;;38.13;13.63;;;;;;;-146.27;81.40;34489.97;5102777;28;20023;-67
2023/12/01 05:43:25;;;;;;;34.40;13.85;;;;;;;-146.27;81.67;34478.06;5092000;28;20036;-68
2023/12/01 05:45:51;;;;;;;48.50;15.63;;;;;;;-146.27;81.35;34523.69;5092088;28;20039;-68
2023/12/01 05:48:16;;;;;;;43.13;15.10;;;;;;;-146.27;81.06;34521.72;5096565;28;20019;-68
2023/12/01 05:50:42;;;;;;;37.10;14.35;;;;;;;-146.27;80.71;34478.06;5081375;28;20561;-69
2023/12/01 05:53:10;;;;;;;34.00;14.05;;;;;;;-146.27;80.92;34462.19;5097113;28;20097;-69
2023/12/01 05:55:36;;;;;;;41.97;14.48;;;;;;;-146.27;80.62;34503.84;5096721;28;20035;-70
2023/12/01 05:58:13;;;;;;;41.33;15.57;;;;;;;-146.27;80.90;34482.03;5096490;28;20462;-69
2023/12/01 06:00:39;;;;;;;41.85;15.10;;;;;;;-146.27;80.96;34442.31;5097437;28;20015;-69
2023/12/01 06:03:06;;;;;;;45.38;16.13;;;;;;;-146.27;80.41;34509.81;5100962;28;20027;-69
2023/12/01 06:05:32;;;;;;;38.67;15.70;;;;;;;-146.27;80.60;34474.09;5097498;28;20039;-68
2023/12/01 06:07:59;;;;;;;43.08;16.02;;;;;;;-146.27;80.34;34489.97;5097038;28;20395;-68
2023/12/01 06:10:26;;;;;;;42.53;16.08;;;;;;;-146.27;80.77;34517.75;5100403;28;20028;-69
2023/12/01 06:12:52;;;;;;;51.83;15.80;;;;;;;-146.27;80.33;34493.94;5098155;28;20059;-69
2023/12/01 06:15:18;;;;;;;37.05;15.07;;;;;;;-146.27;79.91;34513.78;5098820;28;20472;-68
2023/12/01 06:17:46;;;;;;;41.63;15.18;;;;;;;-146.27;80.16;34489.97;5095073;28;20027;-69
2023/12/01 06:20:17;;;;;;;38.53;13.95;;;;;;;-146.27;79.62;34487.97;5077434;28;20020;-68
2023/12/01 06:23:01;;;;;;;34.20;14.20;;;;;;;-146.27;79.29;34480.03;5091334;28;20379;-70
2023/12/01 06:25:29;;;;;;;35.10;13.70;;;;;;;-146.27;79.29;34476.06;5095872;28;20059;-72
2023/12/01 06:27:56;;;;;;;38.53;14.13;;;;;;;-146.27;79.28;34482.03;5091131;28;20027;-68
2023/12/01 06:30:23;;;;;;;40.58;14.30;;;;;;;-146.27;79.51;34484.00;5091005;28;20030;-69
2023/12/01 06:32:50;;;;;;;37.28;14.55;;;;;;;-146.27;79.77;34489.97;5090188;28;20103;-70
2023/12/01 06:35:17;;;;;;;35.97;14.75;;;;;;;-146.27;79.56;34450.25;5090994;28;20157;-69
2023/12/01 06:37:44;;;;;;;37.60;14.45;;;;;;;-146.27;79.31;34470.13;5095873;28;20020;-68
2023/12/01 06:40:11;;;;;;;36.67;14.15;;;;;;;-146.27;79.63;34450.25;5096464;28;20072;-69
2023/12/01 06:42:45;;;;;;;36.50;14.15;;;;;;;-146.27;79.27;34525.69;5107276;28;20022;-69
2023/12/01 06:45:12;;;;;;;40.85;14.70;;;;;;;-146.27;79.76;34462.19;5091128;28;20053;-69
2023/12/01 06:47:39;;;;;;;34.95;13.00;;;;;;;-146.27;80.01;34466.16;5090830;28;20062;-68
2023/12/01 06:50:06;;;;;;;42.75;15.00;;;;;;;-146.27;80.02;34434.38;5087832;28;20122;-70
2023/12/01 06:52:32;;;;;;;40.30;14.85;;;;;;;-146.27;80.21;34489.97;5090062;28;20112;-69
2023/12/01 06:54:58;;;;;;;42.25;14.65;;;;;;;-146.27;79.90;34486.00;5072408;28;20039;-69
2023/12/01 06:57:23;;;;;;;36.85;13.77;;;;;;;-146.27;79.82;34486.00;5097785;28;20046;-69
2023/12/01 06:59:48;;;;;;;36.08;13.70;;;;;;;-146.27;79.56;34493.94;5110027;28;20477;-69
2023/12/01 07:02:17;;;;;;;36.88;15.30;;;;;;;-146.27;79.29;34470.13;5108732;28;20463;-69
2023/12/01 07:04:43;;;;;;;39.05;14.15;;;;;;;-146.27;79.47;34470.13;5097423;28;20032;-69
2023/12/01 07:07:09;;;;;;;38.72;14.02;;;;;;;-146.27;79.41;34450.25;5090397;28;20020;-68
2023/12/01 07:09:34;;;;;;;35.90;12.60;;;;;;;-146.27;79.34;34495.91;5110068;28;20023;-68
2023/12/01 07:12:03;;;;;;;36.47;14.80;;;;;;;-146.27;79.56;34442.31;5096593;28;20016;-69
2023/12/01 07:14:29;;;;;;;37.42;13.48;;;;;;;-146.27;79.66;34446.28;5090199;28;20081;-68
2023/12/01 07:16:54;;;;;;;35.05;12.43;;;;;;;-146.27;79.66;34474.09;5090260;28;20019;-69
2023/12/01 07:19:20;;;;;;;40.10;14.07;;;;;;;-146.27;79.61;34458.22;5102411;28;20066;-70
2023/12/01 07:21:47;;;;;;;34.20;13.55;;;;;;;-146.27;80.09;34476.06;5092669;28;20059;-69
2023/12/01 07:24:13;;;;;;;40.65;14.38;;;;;;;-146.27;79.96;34458.22;5089826;28;20024;-68
2023/12/01 07:26:38;;;;;;;43.03;14.65;;;;;;;-146.27;80.34;34450.25;5090133;28;20039;-70
2023/12/01 07:29:04;;;;;;;40.28;13.73;;;;;;;-146.27;80.63;34450.25;5090027;28;20032;-69
2023/12/01 07:31:35;;;;;;;36.30;13.35;;;;;;;-146.27;80.59;34450.25;5090383;28;20063;-69
2023/12/01 07:34:01;;;;;;;39.42;14.15;;;;;;;-146.27;80.45;34462.19;5089101;28;20036;-69
2023/12/01 07:36:27;;;;;;;35.90;13.38;;;;;;;-146.27;80.45;34458.22;5095649;28;20027;-70
2023/12/01 07:38:53;;;;;;;36.45;13.15;;;;;;;-146.27;80.06;34452.25;5093235;28;20040;-69
2023/12/01 07:41:18;;;;;;;39.55;14.07;;;;;;;-146.27;79.57;34450.25;5089885;28;20413;-69
2023/12/01 07:43:43;;;;;;;41.63;13.25;;;;;;;-146.27;79.75;34434.38;5073197;28;20035;-70
2023/12/01 07:46:09;;;;;;;35.45;12.07;;;;;;;-146.27;79.27;34436.38;5089241;28;20028;-69
2023/12/01 07:48:35;;;;;;;42.70;14.63;;;;;;;-146.27;78.57;34462.19;5089508;28;20027;-69
2023/12/01 07:51:02;;;;;;;41.95;14.10;;;;;;;-146.27;78.50;34489.97;5089453;28;20110;-70
2023/12/01 07:53:28;;;;;;;33.95;13.38;;;;;;;-146.27;78.12;34442.31;5089644;28;20538;-70
2023/12/01 07:55:53;;;;;;;37.42;13.27;;;;;;;-146.27;78.30;34434.38;5089744;28;20102;-68
2023/12/01 07:58:18;;;;;;;35.67;13.90;;;;;;;-146.27;77.93;34464.16;5089821;28;20020;-71
2023/12/01 08:00:45;;;;;;;41.33;14.02;;;;;;;-146.27;78.40;34472.09;5089770;28;20024;-69
2023/12/01 08:03:12;;;;;;;39.17;13.55;;;;;;;-146.27;78.57;34458.22;5089697;28;20059;-68
2023/12/01 08:05:39;;;;;;;36.58;13.77;;;;;;;-146.27;78.26;34428.44;5089025;28;20016;-70
2023/12/01 08:08:04;;;;;;;36.97;13.50;;;;;;;-146.27;78.52;34426.44;5089608;28;20051;-68
2023/12/01 08:10:30;;;;;;;38.10;14.05;;;;;;;-146.27;78.65;34414.53;5087858;28;20123;-69
2023/12/01 08:12:56;;;;;;;37.75;13.38;;;;;;;-146.27;78.87;34414.53;5089772;28;20056;-69
2023/12/01 08:15:21;;;;;;;36.80;13.30;;;;;;;-146.27;79.11;34416.53;5089556;28;20077;-70
2023/12/01 08:17:47;;;;;;;38.65;14.27;;;;;;;-146.27;78.92;34412.56;5089728;28;20070;-68
2023/12/01 08:20:14;;;;;;;34.60;12.27;;;;;;;-146.27;79.20;34442.31;5089082;28;20020;-69
2023/12/01 08:22:43;;;;;;;35.90;13.95;;;;;;;-146.27;78.98;34426.44;5071620;28;20031;-70
2023/12/01 08:25:09;;;;;;;38.55;13.25;;;;;;;-146.27;79.30;34462.19;5071351;28;20124;-69
2023/12/01 08:27:35;;;;;;;38.47;14.73;;;;;;;-146.27;79.30;34420.50;5093159;28;20031;-69
2023/12/01 08:30:03;;;;;;;39.78;13.68;;;;;;;-146.27;79.35;34410.56;5109395;28;20161;-69
2023/12/01 08:32:28;;;;;;;44.97;14.75;;;;;;;-146.27;79.79;34422.47;5103945;28;20027;-69
2023/12/01 08:34:54;;;;;;;34.42;12.95;;;;;;;-146.27;79.55;34406.59;5094015;28;20024;-69
2023/12/01 08:37:20;;;;;;;34.22;13.85;;;;;;;-146.27;79.39;34390.72;5089356;28;20028;-69
2023/12/01 08:39:46;;;;;;;38.08;14.50;;;;;;;-146.27;79.44;34410.56;5089074;28;20020;-69
2023/12/01 08:42:11;;;;;;;45.17;15.57;;;;;;;-146.27;79.16;34386.75;5075591;28;20035;-68
2023/12/01 08:44:37;;;;;;;38.17;13.50;;;;;;;-146.27;79.36;34418.50;5096373;28;20038;-67
2023/12/01 08:47:02;;;;;;;33.08;13.13;;;;;;;-146.27;79.19;34418.50;5081869;28;20485;-69
2023/12/01 08:49:28;;;;;;;34.35;12.52;;;;;;;-146.27;79.26;34382.78;5091629;28;20028;-68
2023/12/01 08:51:55;;;;;;;38.40;13.48;;;;;;;-146.27;79.07;34418.50;5099576;28;20012;-69
2023/12/01 08:54:22;;;;;;;36.25;14.05;;;;;;;-146.27;78.71;34414.53;5108585;28;20031;-69
2023/12/01 08:56:47;;;;;;;35.42;12.68;;;;;;;-146.27;78.90;34410.56;5096487;28;20035;-68
2023/12/01 08:59:13;;;;;;;40.17;14.77;;;;;;;-146.27;78.64;34382.78;5094019;28;20023;-70
2023/12/01 09:01:40;;;;;;;36.63;12.18;;;;;;;-146.27;77.94;34438.34;5099235;28;20119;-69
2023/12/01 09:04:06;;;;;;;34.22;12.30;;;;;;;-146.27;77.77;34374.84;5107303;28;20088;-68
2023/12/01 09:06:31;;;;;;;32.63;12.30;;;;;;;-146.27;77.59;34374.84;5101342;28;20464;-68
2023/12/01 09:08:57;;;;;;;33.33;12.57;;;;;;;-146.27;76.96;34347.06;5092619;28;20024;-68
2023/12/01 09:11:22;;;;;;;35.50;12.82;;;;;;;-146.27;77.01;34370.88;5106670;28;20454;-68
2023/12/01 09:13:47;;;;;;;35.67;11.65;;;;;;;-146.27;76.42;34366.91;5094681;28;20028;-69
2023/12/01 09:16:13;;;;;;;33.55;12.55;;;;;;;-146.27;76.06;34386.75;5092359;28;20426;-67
2023/12/01 09:18:38;;;;;;;32.83;11.60;;;;;;;-146.27;75.54;34362.94;5104507;28;20100;-69
2023/12/01 09:21:04;;;;;;;32.28;12.20;;;;;;;-146.27;75.38;34355.00;5112687;28;20008;-68
2023/12/01 09:23:29;;;;;;;30.65;11.57;;;;;;;-146.27;74.92;34319.28;5098447;28;20024;-68
2023/12/01 09:25:55;;;;;;;28.92;11.52;;;;;;;-146.27;74.25;34372.88;5104028;28;20047;-68
2023/12/01 09:28:23;;;;;;;37.22;12.40;;;;;;;-146.27;73.86;34366.91;5079643;28;20036;-70
2023/12/01 09:30:48;;;;;;;29.58;12.55;;;;;;;-146.27;73.81;34327.22;5096639;28;20056;-69
2023/12/01 09:33:14;;;;;;;27.23;10.63;;;;;;;-146.27;73.52;34311.34;5091731;28;20070;-68
2023/12/01 09:35:39;;;;;;;37.03;13.02;;;;;;;-146.27;72.76;34386.75;5092079;28;20050;-68
2023/12/01 09:38:05;;;;;;;33.35;11.57;;;;;;;-146.27;72.38;34335.16;5100989;28;20107;-68
2023/12/01 09:40:33;;;;;;;24.25;10.50;;;;;;;-146.27;71.79;34329.19;5097513;28;20015;-69
2023/12/01 09:42:59;;;;;;;27.85;11.10;;;;;;;-146.27;71.44;34337.13;5073538;28;20313;-69
2023/12/01 09:45:26;;;;;;;33.17;12.00;;;;;;;-146.27;70.92;34293.47;5092712;28;20039;-68
2023/12/01 09:48:01;;;;;;;27.02;10.52;;;;;;;-146.27;71.08;34331.19;5091680;28;20070;-68
2023/12/01 09:50:27;;;;;;;26.92;11.07;;;;;;;-146.27;70.57;34315.31;5091025;28;20123;-69
2023/12/01 09:52:52;;;;;;;27.27;11.25;;;;;;;-146.27;70.87;34307.38;5091366;28;20106;-68
2023/12/01 09:55:18;;;;;;;30.38;10.10;;;;;;;-146.27;70.26;34311.34;5091110;28;20082;-68
2023/12/01 09:57:44;;;;;;;27.80;11.07;;;;;;;-146.27;69.91;34267.69;5091564;28;20095;-69
2023/12/01 10:00:12;;;;;;;31.20;11.60;;;;;;;-146.27;68.96;34261.72;5092883;28;20124;-68
2023/12/01 10:02:39;;;;;;;27.98;11.02;;;;;;;-146.27;68.46;34273.63;5093783;28;20065;-68
2023/12/01 10:05:06;;;;;;;26.67;11.55;;;;;;;-146.27;67.13;34235.94;5090933;28;20472;-69
2023/12/01 10:07:32;;;;;;;26.98;10.52;;;;;;;-146.27;67.55;34140.66;5091500;28;20028;-69
2023/12/01 10:09:58;;;;;;;26.92;11.15;;;;;;;-146.27;65.61;34073.19;5091337;28;20032;-68
2023/12/01 10:12:23;;;;;;;29.88;11.32;;;;;;;-146.27;64.73;34001.75;5091270;28;20107;-69
2023/12/01 10:14:49;;;;;;;26.48;11.05;;;;;;;-146.27;63.82;33950.16;5099201;28;20019;-69
2023/12/01 10:17:14;;;;;;;25.55;10.70;;;;;;;-146.27;61.17;34025.56;5094556;28;20032;-67
2023/12/01 10:19:45;;;;;;;30.55;11.73;;;;;;;-146.27;62.00;33922.38;5090890;28;20047;-69
2023/12/01 10:22:16;;;;;;;22.55;10.55;;;;;;;-146.27;58.06;33809.25;5091133;28;20024;-68
2023/12/01 10:24:52;;;;;;;23.25;10.85;;;;;;;-146.27;58.24;33922.38;5090856;28;20076;-69
2023/12/01 10:27:19;;;;;;;25.67;10.02;;;;;;;-146.27;57.67;33856.88;5089960;28;20084;-69
2023/12/01 10:29:45;;;;;;;24.80;10.00;;;;;;;-146.27;61.45;33916.41;5090724;28;20093;-68
2023/12/01 10:32:13;;;;;;;22.65;10.05;;;;;;;-146.27;59.06;33727.91;5089759;28;20024;-68
2023/12/01 10:34:47;;;;;;;29.55;11.48;;;;;;;-146.27;58.69;33781.47;5090320;28;20032;-69
2023/12/01 10:37:12;;;;;;;26.40;11.93;;;;;;;-146.27;61.16;33787.44;5092133;28;20019;-68
2023/12/01 10:39:39;;;;;;;28.55;11.73;;;;;;;-146.27;60.45;33811.25;5098970;28;20116;-68
2023/12/01 10:42:09;;;;;;;24.88;10.95;;;;;;;-146.27;61.63;33882.69;5090468;28;20476;-70
2023/12/01 10:44:35;;;;;;;26.83;11.02;;;;;;;-146.27;59.10;33723.94;5071684;28;20036;-69
2023/12/01 10:47:02;;;;;;;24.88;10.57;;;;;;;-146.27;59.46;33771.56;5090612;28;20028;-72
2023/12/01 10:49:27;;;;;;;25.30;10.80;;;;;;;-146.27;58.55;33755.69;5090064;28;20032;-68
2023/12/01 10:51:53;;;;;;;24.92;10.90;;;;;;;-146.27;57.27;33662.41;5090287;28;20051;-69
2023/12/01 10:54:23;;;;;;;27.77;11.18;;;;;;;-146.27;58.05;33737.81;5118075;27;20019;-68
2023/12/01 10:57:10;;;;;;;24.42;11.38;;;;;;;-146.27;57.07;33692.19;5109065;27;20511;-68
2023/12/01 10:59:42;;;;;;;27.85;11.05;;;;;;;-146.27;58.39;33692.19;5102777;28;20533;-68